Jixi, China
Current Conditions -  °F | °C
As of 3:00 PM on Saturday 29 Nov 2014 (Local Time) from UHWW Reporting Station
Few Clouds Few Clouds  
Wind Chill: 27°   Ceiling: Unl
Heat Index: 34°   Visibility: 6mi
Dew Point: 18°   Wind: 9mph
Humidity: 52%   Direction: 320°NW
Pressure: 30.18"   Gusts: NA
Location:  45.3°N, 130.97°E
Report Text: UHWW 290700Z 32004MPS 9999 FEW200 01/M08 Q1022 NOSIG RMKQFE765/1021 25CLRD70
Loading
Personal Weather Stations






























Interactive Weather Map New forecast layout! Learn more

10-Day Weather Forecast

Advertisements
Track Severe Weather on mobile